createdAt,value
2022-09-28T00:00:37.740Z,1.52
2022-09-28T00:03:04.287Z,2.17
2022-09-28T00:05:31.342Z,2.90
2022-09-28T00:07:57.914Z,3.03
2022-09-28T00:10:24.367Z,2.70
2022-09-28T00:12:52.123Z,2.83
2022-09-28T00:15:18.707Z,2.42
2022-09-28T00:17:45.207Z,4.60
2022-09-28T00:20:12.466Z,4.95
2022-09-28T00:22:39.180Z,3.67
2022-09-28T00:25:06.775Z,2.78
2022-09-28T00:27:33.256Z,2.95
2022-09-28T00:30:00.020Z,3.78
2022-09-28T00:32:26.828Z,2.92
2022-09-28T00:34:53.424Z,3.47
2022-09-28T00:37:20.319Z,2.30
2022-09-28T00:39:48.591Z,3.53
2022-09-28T00:42:16.500Z,2.80
2022-09-28T00:44:51.286Z,2.38
2022-09-28T00:47:40.397Z,2.30
2022-09-28T00:50:25.877Z,2.55
2022-09-28T00:53:06.748Z,2.55
2022-09-28T00:56:07.512Z,2.70
2022-09-28T00:58:38.255Z,4.22
2022-09-28T01:01:05.076Z,3.05
2022-09-28T01:03:32.527Z,2.63
2022-09-28T01:06:02.199Z,2.00
2022-09-28T01:08:29.609Z,2.60
2022-09-28T01:10:57.699Z,2.60
2022-09-28T01:13:24.574Z,2.50
2022-09-28T01:16:08.212Z,2.80
2022-09-28T01:18:47.807Z,2.28
2022-09-28T01:21:21.783Z,1.80
2022-09-28T01:24:42.096Z,1.88
2022-09-28T01:27:26.953Z,2.40
2022-09-28T01:30:11.075Z,2.30
2022-09-28T01:32:55.201Z,2.58
2022-09-28T01:35:31.226Z,2.15
2022-09-28T01:38:04.490Z,2.17
2022-09-28T01:40:32.044Z,2.13
2022-09-28T01:43:03.148Z,2.05
2022-09-28T01:45:33.358Z,1.88
2022-09-28T01:48:02.495Z,2.00
2022-09-28T01:50:31.209Z,2.55
2022-09-28T01:53:17.591Z,2.30
2022-09-28T01:55:47.748Z,1.70
2022-09-28T01:58:36.795Z,1.90
2022-09-28T02:01:11.335Z,1.90
2022-09-28T02:03:46.977Z,1.70
2022-09-28T02:06:23.662Z,1.70
2022-09-28T02:08:53.975Z,1.70
2022-09-28T02:11:21.421Z,1.73
2022-09-28T02:13:49.214Z,2.22
2022-09-28T02:16:28.713Z,5.63
2022-09-28T02:18:55.371Z,1.58
2022-09-28T02:21:25.980Z,6.43
2022-09-28T02:23:56.590Z,1.88
2022-09-28T02:26:31.239Z,2.05
2022-09-28T02:28:58.454Z,2.00
2022-09-28T02:31:26.195Z,2.83
2022-09-28T02:33:53.599Z,2.22
2022-09-28T02:36:20.197Z,2.50
2022-09-28T02:38:46.696Z,2.42
2022-09-28T02:41:28.354Z,2.95
2022-09-28T02:44:29.042Z,2.20
2022-09-28T02:47:09.873Z,2.40
2022-09-28T02:49:46.596Z,2.75
2022-09-28T02:53:00.924Z,2.08
2022-09-28T02:56:14.389Z,2.25
2022-09-28T02:58:51.935Z,2.40
2022-09-28T03:01:29.632Z,2.80
2022-09-28T03:04:14.369Z,3.47
2022-09-28T03:06:53.671Z,3.20
2022-09-28T03:09:25.679Z,2.83
2022-09-28T03:11:55.631Z,2.55
2022-09-28T03:14:22.195Z,2.72
2022-09-28T03:16:48.788Z,3.30
2022-09-28T03:19:17.209Z,2.40
2022-09-28T03:21:43.717Z,2.20
2022-09-28T03:24:11.072Z,2.70
2022-09-28T03:26:38.674Z,3.63
2022-09-28T03:29:05.323Z,2.80
2022-09-28T03:31:31.995Z,2.88
2022-09-28T03:33:58.567Z,3.45
2022-09-28T03:36:25.048Z,2.83
2022-09-28T03:38:57.659Z,2.58
2022-09-28T03:41:24.702Z,2.22
2022-09-28T03:43:51.403Z,2.70
2022-09-28T03:46:17.940Z,3.08
2022-09-28T03:48:44.473Z,2.35
2022-09-28T03:51:12.066Z,3.03
2022-09-28T03:53:39.398Z,2.90
2022-09-28T03:56:15.968Z,2.63
2022-09-28T03:58:42.766Z,2.60
2022-09-28T04:01:17.513Z,3.05
2022-09-28T04:03:44.762Z,2.83
2022-09-28T04:06:11.704Z,2.90
2022-09-28T04:08:38.343Z,3.20
2022-09-28T04:11:05.254Z,2.97
2022-09-28T04:13:31.798Z,3.42
2022-09-28T04:15:59.978Z,4.00
2022-09-28T04:18:29.276Z,3.38
2022-09-28T04:21:03.531Z,3.13
2022-09-28T04:23:30.203Z,3.50
2022-09-28T04:25:56.967Z,3.30
2022-09-28T04:28:42.203Z,4.43
2022-09-28T04:31:10.747Z,3.35
2022-09-28T04:33:37.480Z,3.10
2022-09-28T04:36:04.156Z,3.13
2022-09-28T04:38:48.822Z,5.50
2022-09-28T04:41:17.091Z,2.55
2022-09-28T04:43:43.889Z,2.80
2022-09-28T04:46:10.624Z,3.20
2022-09-28T04:48:37.608Z,2.88
2022-09-28T04:51:04.090Z,2.70
2022-09-28T04:53:30.595Z,2.83
2022-09-28T04:55:58.948Z,2.20
2022-09-28T04:58:26.011Z,2.35
2022-09-28T05:00:53.349Z,2.92
2022-09-28T05:03:20.939Z,3.95
2022-09-28T05:05:47.982Z,3.55
2022-09-28T05:08:14.458Z,2.95
2022-09-28T05:10:40.928Z,2.92
2022-09-28T05:13:08.628Z,2.90
2022-09-28T05:15:36.542Z,3.20
2022-09-28T05:18:03.448Z,3.00
2022-09-28T05:20:30.117Z,4.15
2022-09-28T05:22:56.687Z,2.80
2022-09-28T05:25:23.169Z,2.80
2022-09-28T05:27:56.134Z,2.50
2022-09-28T05:30:23.734Z,1.95
2022-09-28T05:32:53.525Z,2.63
2022-09-28T05:35:20.159Z,5.10
2022-09-28T05:37:47.056Z,4.55
2022-09-28T05:40:13.896Z,3.22
2022-09-28T05:42:40.891Z,3.38
2022-09-28T05:45:08.176Z,3.90
2022-09-28T05:47:39.075Z,3.58
2022-09-28T05:50:07.446Z,4.57
2022-09-28T05:52:33.915Z,3.95
2022-09-28T05:55:00.479Z,3.58
2022-09-28T05:57:26.915Z,3.40
2022-09-28T05:59:53.373Z,3.53
2022-09-28T06:02:19.835Z,3.83
2022-09-28T06:04:49.397Z,3.80
2022-09-28T06:07:16.102Z,3.65
2022-09-28T06:09:42.564Z,4.20
2022-09-28T06:12:09.015Z,3.75
2022-09-28T06:14:35.536Z,3.63
2022-09-28T06:17:02.121Z,3.47
2022-09-28T06:19:28.585Z,3.47
2022-09-28T06:21:55.031Z,4.10
2022-09-28T06:24:21.530Z,3.55
2022-09-28T06:26:48.013Z,3.22
2022-09-28T06:29:19.884Z,3.75
2022-09-28T06:31:47.124Z,3.95
2022-09-28T06:34:13.797Z,3.63
2022-09-28T06:36:40.658Z,4.10
2022-09-28T06:39:07.155Z,4.20
2022-09-28T06:41:33.605Z,4.18
2022-09-28T06:44:00.343Z,5.32
2022-09-28T06:46:27.065Z,6.18
2022-09-28T06:48:54.509Z,4.68
2022-09-28T06:51:21.059Z,4.47
2022-09-28T06:53:47.538Z,3.83
2022-09-28T06:56:14.111Z,4.10
2022-09-28T06:58:40.571Z,4.05
2022-09-28T07:01:07.098Z,4.15
2022-09-28T07:03:33.607Z,3.97
2022-09-28T07:06:00.189Z,5.32
2022-09-28T07:08:28.582Z,4.28
2022-09-28T07:10:57.885Z,4.45
2022-09-28T07:13:50.830Z,5.32
2022-09-28T07:16:19.659Z,4.10
2022-09-28T07:18:48.098Z,4.60
2022-09-28T07:21:26.442Z,4.72
2022-09-28T07:23:55.949Z,4.65
2022-09-28T07:26:24.367Z,5.50
2022-09-28T07:28:51.167Z,5.00
2022-09-28T07:31:17.683Z,5.20
2022-09-28T07:33:44.246Z,4.93
2022-09-28T07:36:10.731Z,6.70
2022-09-28T07:38:38.212Z,4.80
2022-09-28T07:41:14.899Z,5.22
2022-09-28T07:43:41.877Z,4.82
2022-09-28T07:46:12.611Z,5.00
2022-09-28T07:48:43.501Z,8.95
2022-09-28T07:51:09.999Z,6.68
2022-09-28T07:53:38.327Z,8.20
2022-09-28T07:56:07.060Z,6.82
2022-09-28T07:58:35.335Z,4.68
2022-09-28T08:01:07.107Z,5.00
2022-09-28T08:03:34.204Z,5.88
2022-09-28T08:06:02.423Z,6.40
2022-09-28T08:08:29.877Z,7.07
2022-09-28T08:10:57.239Z,8.32
2022-09-28T08:13:27.091Z,6.47
2022-09-28T08:15:54.476Z,8.68
2022-09-28T08:18:21.147Z,7.13
2022-09-28T08:21:06.233Z,8.75
2022-09-28T08:23:32.696Z,7.70
2022-09-28T08:25:59.179Z,7.95
2022-09-28T08:28:25.692Z,6.68
2022-09-28T08:30:52.204Z,6.93
2022-09-28T08:33:21.157Z,7.68
2022-09-28T08:35:48.187Z,7.57
2022-09-28T08:38:15.214Z,8.38
2022-09-28T08:40:57.530Z,8.32
2022-09-28T08:43:45.224Z,8.25
2022-09-28T08:46:12.584Z,10.02
2022-09-28T08:49:13.385Z,9.45
2022-09-28T08:51:59.735Z,9.73
2022-09-28T08:54:39.408Z,9.73
2022-09-28T08:57:18.612Z,7.35
2022-09-28T08:59:53.367Z,7.38
2022-09-28T09:02:36.024Z,8.63
2022-09-28T09:05:10.365Z,8.77
2022-09-28T09:07:53.882Z,7.85
2022-09-28T09:10:40.509Z,8.95
2022-09-28T09:13:32.046Z,7.15
2022-09-28T09:16:14.688Z,7.97
2022-09-28T09:18:49.594Z,8.90
2022-09-28T09:21:37.782Z,7.80
2022-09-28T09:24:15.832Z,7.70
2022-09-28T09:26:43.127Z,8.02
2022-09-28T09:29:25.591Z,7.53
2022-09-28T09:32:16.805Z,7.50
2022-09-28T09:35:13.505Z,8.18
2022-09-28T09:38:06.917Z,8.05
2022-09-28T09:41:04.980Z,6.13
2022-09-28T09:43:58.577Z,8.57
2022-09-28T09:46:45.413Z,9.43
2022-09-28T09:49:25.089Z,8.88
2022-09-28T09:52:00.655Z,9.23
2022-09-28T09:54:34.256Z,8.35
2022-09-28T09:59:41.087Z,8.50
2022-09-28T10:02:29.295Z,9.25
2022-09-28T10:05:10.519Z,8.70
2022-09-28T10:07:45.619Z,9.38
2022-09-28T10:10:22.318Z,9.70
2022-09-28T10:12:49.838Z,9.13
2022-09-28T10:15:20.800Z,9.73
2022-09-28T10:17:47.729Z,9.20
2022-09-28T10:20:15.765Z,8.05
2022-09-28T10:22:43.827Z,8.05
2022-09-28T10:25:12.672Z,7.80
2022-09-28T10:27:45.471Z,7.70
2022-09-28T10:30:18.393Z,7.70
2022-09-28T10:32:47.037Z,7.03
2022-09-28T10:35:19.404Z,6.72
2022-09-28T10:38:05.694Z,6.47
2022-09-28T10:41:02.082Z,6.80
2022-09-28T10:44:05.987Z,6.90
2022-09-28T10:46:36.005Z,7.18
2022-09-28T10:49:12.472Z,7.05
2022-09-28T10:51:45.206Z,6.60
2022-09-28T10:54:16.700Z,4.67
2022-09-28T10:56:43.536Z,7.35
2022-09-28T10:59:25.170Z,7.22
2022-09-28T11:01:57.778Z,7.22
2022-09-28T11:04:27.215Z,5.78
2022-09-28T11:09:30.852Z,4.93
2022-09-28T11:11:58.898Z,6.75
2022-09-28T11:14:30.440Z,6.60
2022-09-28T11:17:16.696Z,7.70
2022-09-28T11:19:43.711Z,6.75
2022-09-28T11:22:26.162Z,6.28
2022-09-28T11:24:53.125Z,7.03
2022-09-28T11:27:25.308Z,7.07
2022-09-28T11:29:58.837Z,7.35
2022-09-28T11:32:29.061Z,6.05
2022-09-28T11:34:59.858Z,5.60
2022-09-28T11:38:24.985Z,6.18
2022-09-28T11:41:16.021Z,5.70
2022-09-28T11:44:01.155Z,5.28
2022-09-28T11:46:39.444Z,5.25
2022-09-28T11:49:26.331Z,5.50
2022-09-28T11:51:53.206Z,4.05
2022-09-28T11:54:44.994Z,4.80
2022-09-28T11:57:15.677Z,5.20
2022-09-28T12:00:01.822Z,4.70
2022-09-28T12:02:44.429Z,4.72
2022-09-28T12:05:23.961Z,4.57
2022-09-28T12:08:00.230Z,4.25
2022-09-28T12:10:53.838Z,4.35
2022-09-28T12:13:34.194Z,3.13
2022-09-28T12:16:27.581Z,3.80
2022-09-28T12:21:37.042Z,3.72
2022-09-28T12:24:17.197Z,3.42
2022-09-28T12:26:58.854Z,3.35
2022-09-28T12:29:40.868Z,2.50
2022-09-28T12:32:32.079Z,2.50
2022-09-28T12:34:58.629Z,2.80
2022-09-28T12:37:40.211Z,2.10
2022-09-28T12:40:28.089Z,2.30
2022-09-28T12:43:06.403Z,2.30
2022-09-28T12:46:09.832Z,1.75
2022-09-28T12:52:27.230Z,2.35
2022-09-28T12:55:04.004Z,2.10
2022-09-28T12:57:57.660Z,2.13
2022-09-28T13:00:28.399Z,2.10
2022-09-28T13:02:54.873Z,2.17
2022-09-28T13:05:28.368Z,2.33
2022-09-28T13:08:09.774Z,2.20
2022-09-28T13:11:07.895Z,2.05
2022-09-28T13:13:48.639Z,2.42
2022-09-28T13:16:17.939Z,1.90
2022-09-28T13:18:50.662Z,2.08
2022-09-28T13:21:34.281Z,2.00
2022-09-28T13:24:14.828Z,1.80
2022-09-28T13:26:47.895Z,1.90
2022-09-28T13:29:16.803Z,1.70
2022-09-28T13:31:53.141Z,1.30
2022-09-28T13:34:22.242Z,1.20
2022-09-28T13:37:25.912Z,1.50
2022-09-28T13:39:57.628Z,1.20
2022-09-28T13:42:55.891Z,1.15
2022-09-28T13:45:22.338Z,1.70
2022-09-28T13:47:54.417Z,1.30
2022-09-28T13:50:25.577Z,1.52
2022-09-28T13:53:15.290Z,1.25
2022-09-28T13:56:00.686Z,1.30
2022-09-28T13:58:34.903Z,1.20
2022-09-28T14:01:11.589Z,1.08
2022-09-28T14:03:54.993Z,1.00
2022-09-28T14:06:27.036Z,1.38
2022-09-28T14:09:18.347Z,0.85
2022-09-28T14:12:01.447Z,1.00
2022-09-28T14:14:31.025Z,1.20
2022-09-28T14:17:23.491Z,1.23
2022-09-28T14:19:54.874Z,1.10
2022-09-28T14:23:02.659Z,1.35
2022-09-28T14:25:33.544Z,1.20
2022-09-28T14:28:23.231Z,0.90
2022-09-28T14:30:52.270Z,1.00
2022-09-28T14:33:18.648Z,1.02
2022-09-28T14:35:49.660Z,1.10
2022-09-28T14:38:37.806Z,1.02
2022-09-28T14:41:17.659Z,0.90
2022-09-28T14:43:44.009Z,0.88
2022-09-28T14:46:19.733Z,0.80
2022-09-28T14:49:03.702Z,2.50
2022-09-28T14:54:01.223Z,2.00
2022-09-28T14:56:43.762Z,1.00
2022-09-28T14:59:14.882Z,1.02
2022-09-28T15:01:44.875Z,0.60
2022-09-28T15:04:12.808Z,1.02
2022-09-28T15:06:47.331Z,0.60
2022-09-28T15:09:27.084Z,0.80
2022-09-28T15:11:55.780Z,0.65
2022-09-28T15:14:23.089Z,0.90
2022-09-28T15:16:50.169Z,0.90
2022-09-28T15:19:45.307Z,0.75
2022-09-28T15:22:18.755Z,0.90
2022-09-28T15:24:53.774Z,0.80
2022-09-28T15:27:20.269Z,0.70
2022-09-28T15:30:00.245Z,0.80
2022-09-28T15:32:28.618Z,0.90
2022-09-28T15:34:57.103Z,0.80
2022-09-28T15:37:25.580Z,1.08
2022-09-28T15:39:52.766Z,0.70
2022-09-28T15:42:19.533Z,0.98
2022-09-28T15:45:08.949Z,0.70
2022-09-28T15:47:39.921Z,0.70
2022-09-28T15:50:09.162Z,0.75
2022-09-28T15:52:39.806Z,0.70
2022-09-28T15:55:33.267Z,0.55
2022-09-28T15:58:19.616Z,0.65
2022-09-28T16:00:47.167Z,0.40
2022-09-28T16:03:16.680Z,0.70
2022-09-28T16:05:50.646Z,0.60
2022-09-28T16:08:24.895Z,0.88
2022-09-28T16:11:21.519Z,0.55
2022-09-28T16:14:08.791Z,0.60
2022-09-28T16:16:41.179Z,0.60
2022-09-28T16:19:24.001Z,0.70
2022-09-28T16:21:55.788Z,0.90
2022-09-28T16:24:25.097Z,0.50
2022-09-28T16:27:03.528Z,1.02
2022-09-28T16:29:38.936Z,0.90
2022-09-28T16:32:24.661Z,0.70
2022-09-28T16:35:14.963Z,0.73
2022-09-28T16:37:42.557Z,0.95
2022-09-28T16:40:12.714Z,0.90
2022-09-28T16:42:41.946Z,0.80
2022-09-28T16:45:17.647Z,0.85
2022-09-28T16:47:44.994Z,0.90
2022-09-28T16:50:16.436Z,0.90
2022-09-28T16:53:01.847Z,0.70
2022-09-28T16:55:40.219Z,0.70
2022-09-28T16:58:07.722Z,0.75
2022-09-28T17:00:34.176Z,0.75
2022-09-28T17:03:00.688Z,0.93
2022-09-28T17:05:27.156Z,0.77
2022-09-28T17:08:03.994Z,1.20
2022-09-28T17:11:02.586Z,1.33
2022-09-28T17:13:36.083Z,1.13
2022-09-28T17:16:09.988Z,0.93
2022-09-28T17:18:38.902Z,0.93
2022-09-28T17:21:09.218Z,0.80
2022-09-28T17:23:35.665Z,0.77
2022-09-28T17:26:02.967Z,0.82
2022-09-28T17:28:35.147Z,0.80
2022-09-28T17:31:03.819Z,0.90
2022-09-28T17:33:30.339Z,0.77
2022-09-28T17:36:00.084Z,0.80
2022-09-28T17:38:27.048Z,1.00
2022-09-28T17:40:53.557Z,1.20
2022-09-28T17:43:22.104Z,1.20
2022-09-28T17:45:49.348Z,1.00
2022-09-28T17:48:17.826Z,1.10
2022-09-28T17:50:47.550Z,1.30
2022-09-28T17:53:14.621Z,1.30
2022-09-28T17:55:43.014Z,1.30
2022-09-28T17:58:19.498Z,1.52
2022-09-28T18:00:47.160Z,1.23
2022-09-28T18:03:16.464Z,1.40
2022-09-28T18:05:48.848Z,1.50
2022-09-28T18:08:20.503Z,1.50
2022-09-28T18:10:47.140Z,1.50
2022-09-28T18:13:14.150Z,1.40
2022-09-28T18:15:40.781Z,1.65
2022-09-28T18:18:09.505Z,1.60
2022-09-28T18:20:36.974Z,1.80
2022-09-28T18:23:03.786Z,2.03
2022-09-28T18:25:30.430Z,1.40
2022-09-28T18:27:57.562Z,0.82
2022-09-28T18:30:24.734Z,0.88
2022-09-28T18:32:51.272Z,0.98
2022-09-28T18:35:22.600Z,0.93
2022-09-28T18:37:50.204Z,1.05
2022-09-28T18:40:16.682Z,1.13
2022-09-28T18:42:43.262Z,1.20
2022-09-28T18:45:14.203Z,1.00
2022-09-28T18:47:40.657Z,1.30
2022-09-28T18:50:07.584Z,1.42
2022-09-28T18:52:37.887Z,1.40
2022-09-28T18:55:05.636Z,1.10
2022-09-28T18:57:33.456Z,1.30
2022-09-28T19:00:00.843Z,1.10
2022-09-28T19:02:27.538Z,1.35
2022-09-28T19:04:54.066Z,1.15
2022-09-28T19:07:21.169Z,1.70
2022-09-28T19:09:47.659Z,1.55
2022-09-28T19:12:14.222Z,1.63
2022-09-28T19:14:40.698Z,1.88
2022-09-28T19:17:07.249Z,1.90
2022-09-28T19:19:33.876Z,2.15
2022-09-28T19:22:00.466Z,1.88
2022-09-28T19:24:27.116Z,2.20
2022-09-28T19:26:53.613Z,2.35
2022-09-28T19:29:20.473Z,2.28
2022-09-28T19:31:47.201Z,2.60
2022-09-28T19:34:14.417Z,1.30
2022-09-28T19:36:41.234Z,0.90
2022-09-28T19:39:07.930Z,0.80
2022-09-28T19:41:43.453Z,0.80
2022-09-28T19:44:25.212Z,0.80
2022-09-28T19:46:53.338Z,0.98
2022-09-28T19:49:22.027Z,1.10
2022-09-28T19:52:13.770Z,1.00
2022-09-28T19:54:58.067Z,1.00
2022-09-28T19:57:30.457Z,0.95
2022-09-28T20:00:02.153Z,0.80
2022-09-28T20:02:29.609Z,0.90
2022-09-28T20:04:56.160Z,1.48
2022-09-28T20:07:22.832Z,1.23
2022-09-28T20:09:49.277Z,1.23
2022-09-28T20:12:15.788Z,1.60
2022-09-28T20:14:42.334Z,1.20
2022-09-28T20:17:09.657Z,1.38
2022-09-28T20:19:36.277Z,1.60
2022-09-28T20:22:03.368Z,1.88
2022-09-28T20:24:31.043Z,1.63
2022-09-28T20:26:58.014Z,1.10
2022-09-28T20:29:24.889Z,1.63
2022-09-28T20:31:51.879Z,1.42
2022-09-28T20:34:18.443Z,1.13
2022-09-28T20:36:44.986Z,1.08
2022-09-28T20:39:11.851Z,0.80
2022-09-28T20:41:38.466Z,1.25
2022-09-28T20:44:06.524Z,1.10
2022-09-28T20:46:36.912Z,1.30
2022-09-28T20:49:04.472Z,1.15
2022-09-28T20:51:31.134Z,0.90
2022-09-28T20:53:58.932Z,1.42
2022-09-28T20:56:31.508Z,1.40
2022-09-28T20:58:57.993Z,1.60
2022-09-28T21:01:26.303Z,1.70
2022-09-28T21:03:54.777Z,1.45
2022-09-28T21:06:23.386Z,1.50
2022-09-28T21:08:50.060Z,1.33
2022-09-28T21:11:18.287Z,1.33
2022-09-28T21:13:45.197Z,1.50
2022-09-28T21:16:13.511Z,1.48
2022-09-28T21:18:40.693Z,1.42
2022-09-28T21:21:08.771Z,1.83
2022-09-28T21:23:36.138Z,1.85
2022-09-28T21:26:10.932Z,5.40
2022-09-28T21:28:37.981Z,2.78
2022-09-28T21:31:06.339Z,3.67
2022-09-28T21:33:33.333Z,3.05
2022-09-28T21:36:04.463Z,1.50
2022-09-28T21:38:30.966Z,1.38
2022-09-28T21:40:58.507Z,1.70
2022-09-28T21:43:26.565Z,1.73
2022-09-28T21:45:53.929Z,1.70
2022-09-28T21:48:21.880Z,2.25
2022-09-28T21:50:59.563Z,1.95
2022-09-28T21:53:28.939Z,2.20
2022-09-28T21:55:56.220Z,2.40
2022-09-28T21:58:25.161Z,2.70
2022-09-28T22:00:58.161Z,2.75
2022-09-28T22:03:25.764Z,2.72
2022-09-28T22:05:52.378Z,3.00
2022-09-28T22:08:19.636Z,2.88
2022-09-28T22:10:46.144Z,2.13
2022-09-28T22:13:12.615Z,2.50
2022-09-28T22:15:39.132Z,2.30
2022-09-28T22:18:05.587Z,2.60
2022-09-28T22:20:32.039Z,2.40
2022-09-28T22:22:58.488Z,2.33
2022-09-28T22:25:24.939Z,2.40
2022-09-28T22:27:51.412Z,1.98
2022-09-28T22:30:17.883Z,2.45
2022-09-28T22:32:44.356Z,2.67
2022-09-28T22:35:13.831Z,2.40
2022-09-28T22:37:40.300Z,2.65
2022-09-28T22:40:07.165Z,2.75
2022-09-28T22:42:33.661Z,2.45
2022-09-28T22:45:00.261Z,2.60
2022-09-28T22:47:27.072Z,2.40
2022-09-28T22:49:53.552Z,2.47
2022-09-28T22:52:20.068Z,2.50
2022-09-28T22:54:48.154Z,2.22
2022-09-28T22:57:14.620Z,1.80
2022-09-28T22:59:41.092Z,2.08
2022-09-28T23:02:07.587Z,2.22
2022-09-28T23:04:34.122Z,2.53
2022-09-28T23:07:00.595Z,2.28
2022-09-28T23:09:27.156Z,2.20
2022-09-28T23:11:53.613Z,2.50
2022-09-28T23:14:20.083Z,3.10
2022-09-28T23:16:46.615Z,2.70
2022-09-28T23:19:13.074Z,2.83
2022-09-28T23:21:39.581Z,2.35
2022-09-28T23:24:06.095Z,2.25
2022-09-28T23:26:34.265Z,2.17
2022-09-28T23:29:00.718Z,1.92
2022-09-28T23:31:29.613Z,2.05
2022-09-28T23:34:05.873Z,2.45
2022-09-28T23:36:32.873Z,1.90
2022-09-28T23:38:59.975Z,2.00
2022-09-28T23:41:26.460Z,2.25
2022-09-28T23:43:52.937Z,2.20
2022-09-28T23:46:20.989Z,2.50
2022-09-28T23:48:48.447Z,2.47
2022-09-28T23:51:14.963Z,2.30
2022-09-28T23:53:41.426Z,2.40
2022-09-28T23:56:08.025Z,2.67
2022-09-28T23:58:34.503Z,3.03
